Time;durP1;ratioP1;P1;durP2;ratioP2;P2;SDS_P1;SDS_P2;PMS_P1;PMS_P2;Temp;Humidity;BMP_temperature;BMP_pressure;BME280_temperature;BME280_humidity;BME280_pressure;Samples;Min_cycle;Max_cycle;Signal;HPM_P1;HPM_P2
2024/02/16 00:01:01;;;;;;;4.35;1.80;;;9.70;99.90;;;;;;4902594;29;20044;-59
2024/02/16 00:03:28;;;;;;;3.63;1.83;;;9.70;99.90;;;;;;4899175;29;20056;-59
2024/02/16 00:05:55;;;;;;;3.15;1.52;;;9.70;99.90;;;;;;4891948;29;20053;-59
2024/02/16 00:08:22;;;;;;;2.20;1.60;;;9.60;99.90;;;;;;4903981;29;20049;-60
2024/02/16 00:10:49;;;;;;;6.15;1.88;;;9.60;99.90;;;;;;4895676;29;20072;-59
2024/02/16 00:13:16;;;;;;;2.50;1.52;;;9.60;99.90;;;;;;4892715;29;20467;-58
2024/02/16 00:15:42;;;;;;;5.15;1.38;;;9.60;99.90;;;;;;4906936;29;20064;-60
2024/02/16 00:18:09;;;;;;;3.25;1.40;;;9.60;99.90;;;;;;4892161;29;20048;-60
2024/02/16 00:20:36;;;;;;;3.35;1.40;;;9.60;99.90;;;;;;4902528;29;20545;-58
2024/02/16 00:23:03;;;;;;;4.72;1.60;;;9.70;99.90;;;;;;4898925;29;20040;-61
2024/02/16 00:25:29;;;;;;;2.97;1.42;;;9.70;99.90;;;;;;4899083;29;20507;-61
2024/02/16 00:27:56;;;;;;;4.28;1.65;;;9.70;99.90;;;;;;4900602;29;20045;-60
2024/02/16 00:30:23;;;;;;;3.53;1.02;;;9.80;99.90;;;;;;4910424;29;20070;-61
2024/02/16 00:32:50;;;;;;;5.38;1.45;;;9.80;99.90;;;;;;4904374;29;20044;-60
2024/02/16 00:35:17;;;;;;;2.17;1.30;;;9.80;99.90;;;;;;4898669;29;20048;-60
2024/02/16 00:37:45;;;;;;;2.70;1.48;;;9.80;99.90;;;;;;4897324;29;20112;-59
2024/02/16 00:40:12;;;;;;;3.28;1.20;;;9.90;99.90;;;;;;4896012;29;20056;-61
2024/02/16 00:42:39;;;;;;;3.88;1.30;;;9.90;99.90;;;;;;4893789;29;20562;-61
2024/02/16 00:45:07;;;;;;;3.60;1.33;;;9.90;99.90;;;;;;4897379;29;20097;-61
2024/02/16 00:47:33;;;;;;;2.75;1.65;;;9.90;99.90;;;;;;4900891;29;20139;-61
2024/02/16 00:50:00;;;;;;;1.67;1.20;;;9.90;99.90;;;;;;4901830;29;20052;-61
2024/02/16 00:52:27;;;;;;;3.28;1.27;;;9.90;99.90;;;;;;4907336;29;20569;-61
2024/02/16 00:54:54;;;;;;;1.40;1.10;;;9.90;99.90;;;;;;4883311;29;20049;-61
2024/02/16 00:57:21;;;;;;;5.97;1.83;;;9.90;99.90;;;;;;4901119;29;20103;-58
2024/02/16 00:59:47;;;;;;;5.10;1.27;;;9.80;99.90;;;;;;4899957;29;20119;-61
2024/02/16 01:02:16;;;;;;;1.90;1.20;;;9.70;99.90;;;;;;4891161;29;20053;-60
2024/02/16 01:04:43;;;;;;;3.05;1.40;;;9.70;99.90;;;;;;4895540;29;20073;-60
2024/02/16 01:07:10;;;;;;;4.97;1.85;;;9.60;99.90;;;;;;4900177;29;20132;-60
2024/02/16 01:09:37;;;;;;;3.05;1.60;;;9.60;99.90;;;;;;4889393;29;20063;-61
2024/02/16 01:12:04;;;;;;;1.92;1.27;;;9.60;99.90;;;;;;4903231;29;20052;-60
2024/02/16 01:14:31;;;;;;;3.97;1.40;;;9.60;99.90;;;;;;4898864;29;20119;-60
2024/02/16 01:16:57;;;;;;;1.90;1.08;;;9.60;99.90;;;;;;4892204;29;20104;-60
2024/02/16 01:19:24;;;;;;;3.15;1.40;;;9.60;99.90;;;;;;4900134;29;20076;-61
2024/02/16 01:21:53;;;;;;;2.40;1.35;;;9.60;99.90;;;;;;4900605;29;20473;-61
2024/02/16 01:24:21;;;;;;;4.22;1.38;;;9.60;99.90;;;;;;4900778;29;20056;-59
2024/02/16 01:26:48;;;;;;;5.22;1.30;;;9.60;99.90;;;;;;4898191;29;20527;-59
2024/02/16 01:29:15;;;;;;;3.90;1.15;;;9.60;99.90;;;;;;4896590;29;20057;-60
2024/02/16 01:31:41;;;;;;;2.45;1.00;;;9.60;99.90;;;;;;4896506;29;20082;-60
2024/02/16 01:34:08;;;;;;;4.05;1.23;;;9.70;99.90;;;;;;4902342;29;20103;-60
2024/02/16 01:36:35;;;;;;;3.60;1.13;;;9.70;99.90;;;;;;4904396;29;20053;-60
2024/02/16 01:39:02;;;;;;;2.55;1.15;;;9.80;99.90;;;;;;4892560;29;20160;-61
2024/02/16 01:41:29;;;;;;;3.78;1.33;;;9.80;99.90;;;;;;4900653;29;20103;-61
2024/02/16 01:43:56;;;;;;;2.42;1.13;;;9.90;99.90;;;;;;4901392;29;20565;-60
2024/02/16 01:46:22;;;;;;;7.55;2.10;;;9.90;99.90;;;;;;4900789;29;20410;-60
2024/02/16 01:48:50;;;;;;;5.35;1.33;;;9.90;99.90;;;;;;4893678;29;20521;-59
2024/02/16 01:51:18;;;;;;;2.40;1.42;;;9.90;99.90;;;;;;4900995;29;20053;-60
2024/02/16 01:53:45;;;;;;;3.65;1.05;;;9.90;99.90;;;;;;4897186;29;20537;-58
2024/02/16 01:56:12;;;;;;;1.80;1.00;;;10.00;99.90;;;;;;4895799;29;20108;-61
2024/02/16 01:58:39;;;;;;;1.27;0.88;;;10.00;99.90;;;;;;4897304;29;20467;-60
2024/02/16 02:01:06;;;;;;;2.08;1.08;;;10.00;99.90;;;;;;4897835;29;20482;-59
2024/02/16 02:03:34;;;;;;;3.75;2.05;;;10.10;99.90;;;;;;4884526;29;20069;-60
2024/02/16 02:06:01;;;;;;;4.20;1.58;;;10.10;99.90;;;;;;4893946;29;20426;-61
2024/02/16 02:08:29;;;;;;;1.88;1.05;;;10.10;99.90;;;;;;4899125;29;20048;-60
2024/02/16 02:10:55;;;;;;;3.22;1.13;;;10.10;99.90;;;;;;4885694;29;20051;-60
2024/02/16 02:13:22;;;;;;;4.72;1.15;;;10.10;99.90;;;;;;4901752;29;20056;-61
2024/02/16 02:15:49;;;;;;;4.75;1.30;;;10.10;99.90;;;;;;4912574;29;20067;-60
2024/02/16 02:18:16;;;;;;;2.45;1.20;;;10.10;99.90;;;;;;4897443;29;20693;-60
2024/02/16 02:20:43;;;;;;;2.95;1.13;;;10.10;99.90;;;;;;4893735;29;20618;-60
2024/02/16 02:23:10;;;;;;;3.03;1.17;;;10.10;99.90;;;;;;4900871;29;20084;-61
2024/02/16 02:25:36;;;;;;;4.57;1.55;;;10.10;99.90;;;;;;4887416;29;20044;-61
2024/02/16 02:28:03;;;;;;;2.40;1.10;;;10.10;99.90;;;;;;4879995;29;20144;-60
2024/02/16 02:30:30;;;;;;;1.80;1.05;;;10.10;99.90;;;;;;4898507;29;20104;-61
2024/02/16 02:32:57;;;;;;;2.63;1.38;;;10.10;99.90;;;;;;4899448;29;20108;-59
2024/02/16 02:35:24;;;;;;;2.72;0.90;;;10.10;99.90;;;;;;4891725;29;20096;-60
2024/02/16 02:37:51;;;;;;;1.45;0.95;;;10.10;99.90;;;;;;4897341;29;20111;-60
2024/02/16 02:40:18;;;;;;;2.05;1.05;;;10.10;99.90;;;;;;4900604;29;20510;-61
2024/02/16 02:42:44;;;;;;;2.20;1.00;;;10.10;99.90;;;;;;4899330;29;20044;-60
2024/02/16 02:45:11;;;;;;;4.40;1.10;;;10.10;99.90;;;;;;4900703;29;20108;-59
2024/02/16 02:47:38;;;;;;;4.50;1.30;;;10.00;99.90;;;;;;4901813;29;20147;-58
2024/02/16 02:50:05;;;;;;;1.98;1.08;;;10.00;99.90;;;;;;4899517;29;20051;-60
2024/02/16 02:52:32;;;;;;;3.22;1.20;;;10.00;99.90;;;;;;4897674;29;20088;-59
2024/02/16 02:54:59;;;;;;;3.10;1.20;;;10.00;99.90;;;;;;4890989;29;20597;-59
2024/02/16 02:57:26;;;;;;;1.30;1.00;;;10.00;99.90;;;;;;4898424;29;20115;-59
2024/02/16 02:59:53;;;;;;;3.08;1.20;;;9.90;99.90;;;;;;4897840;29;20496;-60
2024/02/16 03:02:19;;;;;;;3.58;1.13;;;9.90;99.90;;;;;;4898420;29;20061;-60
2024/02/16 03:04:46;;;;;;;2.58;1.10;;;10.00;99.90;;;;;;4899797;29;20729;-60
2024/02/16 03:07:14;;;;;;;1.17;1.08;;;9.90;99.90;;;;;;4904212;29;20044;-60
2024/02/16 03:09:41;;;;;;;1.63;1.10;;;10.00;99.90;;;;;;4897846;29;20048;-59
2024/02/16 03:12:08;;;;;;;1.50;1.05;;;10.00;99.90;;;;;;4900653;29;20512;-59
2024/02/16 03:14:36;;;;;;;2.70;1.30;;;10.10;99.90;;;;;;4894601;29;20049;-59
2024/02/16 03:17:03;;;;;;;3.22;1.10;;;10.00;99.90;;;;;;4897555;29;20120;-59
2024/02/16 03:19:30;;;;;;;4.18;1.65;;;10.00;99.90;;;;;;4888194;29;20568;-60
2024/02/16 03:21:57;;;;;;;3.17;1.40;;;10.00;99.90;;;;;;4903459;29;20045;-60
2024/02/16 03:24:24;;;;;;;4.93;1.48;;;10.00;99.90;;;;;;4902238;29;20049;-59
2024/02/16 03:26:50;;;;;;;2.63;1.27;;;10.00;99.90;;;;;;4899520;29;20048;-60
2024/02/16 03:29:17;;;;;;;4.63;1.60;;;10.00;99.90;;;;;;4899107;29;20603;-60
2024/02/16 03:31:44;;;;;;;3.38;1.65;;;10.10;99.90;;;;;;4897225;29;20080;-60
2024/02/16 03:34:11;;;;;;;3.35;1.50;;;10.10;99.90;;;;;;4903418;29;20080;-59
2024/02/16 03:36:38;;;;;;;1.13;1.00;;;10.10;99.90;;;;;;4897172;29;20131;-59
2024/02/16 03:39:08;;;;;;;3.75;1.13;;;10.10;99.90;;;;;;4885348;29;20069;-59
2024/02/16 03:41:35;;;;;;;2.38;1.23;;;10.00;99.90;;;;;;4898482;29;20044;-59
2024/02/16 03:44:02;;;;;;;2.58;1.20;;;10.00;99.90;;;;;;4899919;29;22635;-60
2024/02/16 03:46:28;;;;;;;1.98;1.00;;;10.00;99.90;;;;;;4893933;29;20083;-60
2024/02/16 03:48:55;;;;;;;1.42;1.20;;;10.00;99.90;;;;;;4902159;29;20712;-59
2024/02/16 03:51:23;;;;;;;1.92;1.33;;;10.00;99.90;;;;;;4887666;29;20051;-59
2024/02/16 03:53:49;;;;;;;2.22;1.50;;;10.10;99.90;;;;;;4899187;29;20060;-60
2024/02/16 03:56:20;;;;;;;2.20;1.20;;;10.10;99.90;;;;;;4884200;29;20163;-60
2024/02/16 03:58:47;;;;;;;1.77;1.00;;;10.10;99.90;;;;;;4895825;29;20052;-57
2024/02/16 04:01:14;;;;;;;3.08;1.30;;;10.00;99.90;;;;;;4890211;29;20044;-59
2024/02/16 04:03:41;;;;;;;1.10;1.00;;;10.00;99.90;;;;;;4901424;29;20059;-59
2024/02/16 04:06:08;;;;;;;3.67;1.42;;;10.00;99.90;;;;;;4894738;29;20044;-58
2024/02/16 04:08:35;;;;;;;6.55;1.40;;;10.00;99.90;;;;;;4900583;29;20417;-59
2024/02/16 04:11:02;;;;;;;2.35;1.15;;;10.00;99.90;;;;;;4896783;29;20112;-55
2024/02/16 04:13:29;;;;;;;2.65;1.20;;;9.90;99.90;;;;;;4894880;29;20052;-60
2024/02/16 04:15:56;;;;;;;2.03;1.15;;;9.90;99.90;;;;;;4892763;29;20053;-57
2024/02/16 04:18:23;;;;;;;4.82;1.50;;;9.90;99.90;;;;;;4898232;29;20060;-58
2024/02/16 04:20:50;;;;;;;4.50;1.20;;;9.90;99.90;;;;;;4898504;29;20048;-56
2024/02/16 04:23:16;;;;;;;5.13;1.33;;;9.80;99.90;;;;;;4895423;29;20057;-60
2024/02/16 04:25:43;;;;;;;3.83;1.60;;;9.80;99.90;;;;;;4899043;29;20155;-58
2024/02/16 04:28:10;;;;;;;3.60;2.03;;;9.70;99.90;;;;;;4899819;29;20120;-58
2024/02/16 04:30:37;;;;;;;2.45;1.50;;;9.70;99.90;;;;;;4897980;29;20079;-57
2024/02/16 04:33:04;;;;;;;2.38;0.93;;;9.70;99.90;;;;;;4889776;29;20135;-58
2024/02/16 04:35:31;;;;;;;6.45;1.30;;;9.60;99.90;;;;;;4885669;29;20418;-58
2024/02/16 04:37:58;;;;;;;7.78;2.03;;;9.60;99.90;;;;;;4896057;29;20096;-55
2024/02/16 04:40:25;;;;;;;3.83;1.40;;;9.50;99.90;;;;;;4896015;29;20063;-59
2024/02/16 04:42:52;;;;;;;3.03;1.17;;;9.50;99.90;;;;;;4891816;29;20064;-57
2024/02/16 04:45:20;;;;;;;4.82;1.27;;;9.50;99.90;;;;;;4890026;29;20048;-57
2024/02/16 04:47:46;;;;;;;3.28;1.25;;;9.40;99.90;;;;;;4902315;29;20088;-57
2024/02/16 04:50:13;;;;;;;5.43;1.50;;;9.40;99.90;;;;;;4894339;29;20675;-57
2024/02/16 04:52:40;;;;;;;5.35;1.50;;;9.40;99.90;;;;;;4884735;29;20494;-58
2024/02/16 04:55:07;;;;;;;5.57;1.58;;;9.30;99.90;;;;;;4901248;29;20056;-55
2024/02/16 04:57:34;;;;;;;4.40;2.00;;;9.30;99.90;;;;;;4895430;29;20117;-58
2024/02/16 05:00:01;;;;;;;3.88;1.50;;;9.30;99.90;;;;;;4895558;29;20481;-55
2024/02/16 05:02:28;;;;;;;3.92;1.45;;;9.20;99.90;;;;;;4894701;29;20147;-58
2024/02/16 05:04:55;;;;;;;1.98;1.20;;;9.20;99.90;;;;;;4899430;29;20048;-55
2024/02/16 05:07:23;;;;;;;3.53;1.42;;;9.20;99.90;;;;;;4903095;29;20044;-60
2024/02/16 05:09:55;;;;;;;3.15;1.50;;;9.20;99.90;;;;;;4896900;29;20047;-57
2024/02/16 05:12:22;;;;;;;2.85;1.35;;;9.20;99.90;;;;;;4862950;29;27842;-58
2024/02/16 05:14:50;;;;;;;4.32;1.58;;;9.20;99.90;;;;;;4900649;29;20052;-59
2024/02/16 05:17:18;;;;;;;2.85;1.40;;;9.20;99.90;;;;;;4905937;29;20072;-58
2024/02/16 05:19:44;;;;;;;3.70;1.20;;;9.30;99.90;;;;;;4906651;29;20053;-56
2024/02/16 05:22:12;;;;;;;3.00;1.42;;;9.30;99.90;;;;;;4901246;29;20412;-60
2024/02/16 05:24:38;;;;;;;2.05;1.40;;;9.30;99.90;;;;;;4904082;29;20107;-59
2024/02/16 05:27:05;;;;;;;3.53;1.30;;;9.30;99.90;;;;;;4904146;29;20133;-57
2024/02/16 05:29:32;;;;;;;2.85;1.40;;;9.30;99.90;;;;;;4905328;29;20434;-59
2024/02/16 05:31:58;;;;;;;2.15;1.30;;;9.20;99.90;;;;;;4905745;29;20139;-59
2024/02/16 05:34:25;;;;;;;4.45;1.30;;;9.30;99.90;;;;;;4904722;29;21495;-58
2024/02/16 05:36:52;;;;;;;3.63;1.83;;;9.30;99.90;;;;;;4905504;29;20551;-58
2024/02/16 05:39:31;;;;;;;2.03;1.30;;;9.40;99.90;;;;;;4908088;29;20052;-59
2024/02/16 05:41:58;;;;;;;3.38;1.60;;;9.60;99.90;;;;;;4901058;29;20067;-58
2024/02/16 05:44:25;;;;;;;4.13;1.50;;;9.70;99.90;;;;;;4905534;29;20413;-59
2024/02/16 05:46:52;;;;;;;3.33;1.50;;;9.90;99.90;;;;;;4903209;29;20044;-59
2024/02/16 05:49:19;;;;;;;2.55;1.10;;;9.90;99.90;;;;;;4889764;29;20509;-56
2024/02/16 05:52:17;;;;;;;1.83;1.30;;;10.00;99.90;;;;;;4909278;29;20664;-59
2024/02/16 05:54:33;;;;;;;4.38;1.50;;;10.10;99.90;;;;;;4903889;29;20099;-56
2024/02/16 05:57:04;;;;;;;2.53;1.60;;;10.20;99.90;;;;;;4903812;29;20619;-59
2024/02/16 05:59:31;;;;;;;4.50;1.30;;;10.20;99.90;;;;;;4901113;29;20049;-58
2024/02/16 06:01:58;;;;;;;2.53;1.20;;;10.20;99.90;;;;;;4905426;29;20100;-58
2024/02/16 06:04:26;;;;;;;3.17;1.17;;;10.20;99.90;;;;;;4903896;29;20446;-58
2024/02/16 06:06:54;;;;;;;2.78;1.20;;;10.20;99.90;;;;;;4908711;29;20040;-59
2024/02/16 06:09:21;;;;;;;4.28;1.50;;;10.30;99.90;;;;;;4905404;29;20096;-58
2024/02/16 06:11:48;;;;;;;2.03;1.00;;;10.30;99.90;;;;;;4907757;29;20056;-58
2024/02/16 06:14:15;;;;;;;7.80;1.98;;;10.40;99.90;;;;;;4903278;29;20072;-56
2024/02/16 06:16:46;;;;;;;3.45;2.35;;;10.40;99.90;;;;;;4904769;29;20055;-58
2024/02/16 06:19:14;;;;;;;3.20;1.60;;;10.40;99.90;;;;;;4885899;29;20056;-56
2024/02/16 06:21:40;;;;;;;3.03;1.40;;;10.50;99.90;;;;;;4908966;29;20048;-59
2024/02/16 06:24:07;;;;;;;2.92;1.30;;;10.50;99.90;;;;;;4901497;29;20126;-60
2024/02/16 06:26:34;;;;;;;2.42;1.65;;;10.70;99.90;;;;;;4901821;29;20048;-59
2024/02/16 06:29:01;;;;;;;3.20;1.30;;;10.90;99.90;;;;;;4900255;29;20051;-57
2024/02/16 06:31:28;;;;;;;2.58;1.45;;;11.10;99.90;;;;;;4907688;29;20545;-55
2024/02/16 06:33:55;;;;;;;3.60;1.45;;;11.00;99.90;;;;;;4903557;29;20119;-57
2024/02/16 06:36:23;;;;;;;9.57;1.75;;;11.00;99.90;;;;;;4906838;29;20102;-59
2024/02/16 06:38:51;;;;;;;1.77;1.50;;;11.00;99.90;;;;;;4904472;29;20056;-60
2024/02/16 06:41:18;;;;;;;4.10;2.17;;;11.00;99.90;;;;;;4900931;29;20069;-59
2024/02/16 06:43:45;;;;;;;3.95;1.63;;;11.00;99.90;;;;;;4907034;29;20112;-59
2024/02/16 06:46:12;;;;;;;6.20;4.72;;;11.10;99.90;;;;;;4906490;29;20044;-60
2024/02/16 06:48:38;;;;;;;4.65;3.40;;;11.10;99.90;;;;;;4905978;29;20056;-58
2024/02/16 06:51:05;;;;;;;3.28;2.15;;;11.10;99.90;;;;;;4906203;29;20556;-60
2024/02/16 06:53:36;;;;;;;2.53;1.55;;;11.10;99.90;;;;;;4904321;29;20076;-59
2024/02/16 06:56:04;;;;;;;5.45;1.90;;;11.10;99.90;;;;;;4916134;29;20053;-59
2024/02/16 06:58:30;;;;;;;3.40;1.23;;;11.10;99.90;;;;;;4906097;29;20044;-59
2024/02/16 07:01:02;;;;;;;2.55;1.73;;;11.20;99.90;;;;;;4904795;29;20052;-59
2024/02/16 07:03:30;;;;;;;4.65;1.70;;;11.30;99.90;;;;;;4902530;29;20052;-60
2024/02/16 07:05:57;;;;;;;3.42;1.42;;;11.30;99.90;;;;;;4903810;29;20079;-59
2024/02/16 07:08:25;;;;;;;3.97;1.45;;;11.40;99.90;;;;;;4907157;29;20080;-59
2024/02/16 07:10:52;;;;;;;3.20;1.52;;;11.50;99.90;;;;;;4907285;29;20052;-61
2024/02/16 07:13:19;;;;;;;2.13;1.20;;;11.60;99.90;;;;;;4907508;29;20053;-60
2024/02/16 07:15:46;;;;;;;4.32;1.40;;;11.60;99.90;;;;;;4902827;29;20548;-61
2024/02/16 07:18:13;;;;;;;3.63;1.60;;;11.80;99.90;;;;;;4905489;29;20057;-60
2024/02/16 07:20:40;;;;;;;5.63;2.28;;;11.90;99.90;;;;;;4906797;29;20104;-61
2024/02/16 07:23:07;;;;;;;2.22;1.77;;;12.00;99.90;;;;;;4903207;29;20064;-60
2024/02/16 07:25:33;;;;;;;3.63;1.75;;;12.00;99.90;;;;;;4891516;29;20076;-60
2024/02/16 07:28:00;;;;;;;3.95;1.52;;;12.10;99.90;;;;;;4898439;29;20474;-58
2024/02/16 07:30:27;;;;;;;7.28;4.28;;;12.10;99.90;;;;;;4899884;29;20056;-59
2024/02/16 07:33:07;;;;;;;3.35;2.38;;;12.10;99.90;;;;;;4900834;29;20048;-59
2024/02/16 07:35:35;;;;;;;3.65;2.13;;;12.20;99.90;;;;;;4899940;29;20057;-60
2024/02/16 07:38:03;;;;;;;4.45;1.83;;;12.20;99.90;;;;;;4899398;29;20537;-59
2024/02/16 07:40:33;;;;;;;3.83;1.67;;;12.20;99.90;;;;;;4903316;29;20548;-58
2024/02/16 07:43:00;;;;;;;5.13;2.10;;;12.20;99.90;;;;;;4898490;29;20579;-58
2024/02/16 07:45:27;;;;;;;3.75;2.00;;;12.20;99.90;;;;;;4900168;29;20107;-60
2024/02/16 07:47:55;;;;;;;4.13;1.50;;;12.40;99.90;;;;;;4894918;29;20155;-60
2024/02/16 07:50:23;;;;;;;4.43;1.60;;;12.50;99.90;;;;;;4900372;29;20868;-60
2024/02/16 07:52:50;;;;;;;1.90;1.27;;;12.50;99.90;;;;;;4900631;29;20056;-59
2024/02/16 07:55:18;;;;;;;13.55;4.28;;;12.60;99.90;;;;;;4901677;29;20045;-60
2024/02/16 07:57:45;;;;;;;13.68;4.55;;;12.70;99.90;;;;;;4899896;29;20044;-57
2024/02/16 08:00:12;;;;;;;4.95;2.00;;;12.90;99.90;;;;;;4896104;29;20108;-57
2024/02/16 08:02:39;;;;;;;2.85;1.42;;;12.90;99.90;;;;;;4900384;29;20055;-59
2024/02/16 08:05:07;;;;;;;5.70;1.52;;;13.00;99.90;;;;;;4896988;29;20059;-61
2024/02/16 08:07:34;;;;;;;2.92;1.42;;;13.10;99.90;;;;;;4901409;29;20040;-59
2024/02/16 08:10:02;;;;;;;2.67;1.60;;;13.10;99.90;;;;;;4905312;29;20054;-60
2024/02/16 08:12:31;;;;;;;1.77;1.25;;;13.20;99.90;;;;;;4908234;29;20104;-60
2024/02/16 08:14:58;;;;;;;2.22;1.13;;;13.40;99.90;;;;;;4902184;29;20788;-59
2024/02/16 08:17:26;;;;;;;2.13;1.55;;;13.50;99.90;;;;;;4900411;29;20055;-62
2024/02/16 08:19:54;;;;;;;1.63;1.20;;;13.60;99.90;;;;;;4902638;29;20410;-60
2024/02/16 08:22:22;;;;;;;3.28;1.20;;;13.70;99.90;;;;;;4903638;29;20636;-58
2024/02/16 08:24:49;;;;;;;3.05;1.27;;;13.80;99.90;;;;;;4903456;29;20481;-60
2024/02/16 08:27:16;;;;;;;3.00;1.33;;;13.90;99.90;;;;;;4902652;29;20057;-60
2024/02/16 08:29:44;;;;;;;1.63;1.20;;;14.00;99.90;;;;;;4903458;29;20143;-59
2024/02/16 08:32:11;;;;;;;3.83;1.25;;;14.10;99.90;;;;;;4900965;29;20060;-60
2024/02/16 08:34:38;;;;;;;5.22;1.60;;;14.20;99.90;;;;;;4905968;29;20128;-60
2024/02/16 08:37:06;;;;;;;3.72;1.30;;;14.30;99.90;;;;;;4900362;29;20513;-59
2024/02/16 08:39:34;;;;;;;3.45;1.40;;;14.40;99.90;;;;;;4899816;29;20052;-60
2024/02/16 08:42:03;;;;;;;5.03;1.40;;;14.50;99.90;;;;;;4906148;29;20044;-59
2024/02/16 08:44:29;;;;;;;4.00;1.40;;;14.60;99.90;;;;;;4904157;29;20048;-61
2024/02/16 08:46:56;;;;;;;1.50;1.10;;;14.60;99.90;;;;;;4897877;29;20041;-58
2024/02/16 08:49:23;;;;;;;3.72;1.20;;;14.70;99.90;;;;;;4918506;29;20060;-59
2024/02/16 08:51:50;;;;;;;3.25;1.40;;;14.90;99.90;;;;;;4907099;29;20052;-60
2024/02/16 08:54:18;;;;;;;2.00;1.40;;;15.00;99.90;;;;;;4890214;29;20056;-58
2024/02/16 08:56:46;;;;;;;2.97;1.30;;;15.10;99.90;;;;;;4890165;29;20048;-58
2024/02/16 08:59:12;;;;;;;4.53;1.95;;;15.20;99.90;;;;;;4900951;29;20053;-57
2024/02/16 09:01:40;;;;;;;2.85;1.20;;;15.30;99.90;;;;;;4904002;29;20076;-59
2024/02/16 09:04:06;;;;;;;3.35;1.25;;;15.50;99.90;;;;;;4898444;29;20101;-56
2024/02/16 09:06:36;;;;;;;5.28;1.30;;;15.60;99.90;;;;;;4908581;29;20058;-59
2024/02/16 09:09:03;;;;;;;3.42;1.30;;;15.70;99.90;;;;;;4905034;29;20540;-59
2024/02/16 09:11:30;;;;;;;2.75;1.00;;;15.90;99.90;;;;;;4908122;29;20047;-57
2024/02/16 09:13:57;;;;;;;4.90;1.48;;;15.90;99.90;;;;;;4909041;29;20100;-59
2024/02/16 09:16:24;;;;;;;4.25;1.20;;;16.00;99.90;;;;;;4906632;29;20059;-56
2024/02/16 09:18:51;;;;;;;4.25;0.90;;;16.10;99.90;;;;;;4911114;29;20075;-57
2024/02/16 09:21:19;;;;;;;1.75;1.10;;;16.20;99.90;;;;;;4903080;29;20071;-57
2024/02/16 09:23:46;;;;;;;6.00;1.30;;;16.20;99.90;;;;;;4903708;29;20403;-60
2024/02/16 09:26:13;;;;;;;2.70;1.50;;;16.20;99.90;;;;;;4898053;29;20489;-59
2024/02/16 09:28:43;;;;;;;3.67;1.38;;;16.20;99.90;;;;;;4893816;29;20387;-58
2024/02/16 09:31:14;;;;;;;5.85;1.55;;;16.10;99.90;;;;;;4893340;29;20057;-58
2024/02/16 09:33:41;;;;;;;4.72;1.45;;;16.10;99.90;;;;;;4913304;29;20048;-59
2024/02/16 09:36:09;;;;;;;4.30;1.75;;;16.10;99.90;;;;;;4892767;29;20087;-59
2024/02/16 09:38:36;;;;;;;2.80;1.00;;;16.00;99.90;;;;;;4900836;29;20545;-59
2024/02/16 09:41:03;;;;;;;4.03;1.30;;;16.10;99.90;;;;;;4899305;29;20059;-59
2024/02/16 09:43:30;;;;;;;5.47;1.65;;;16.00;99.90;;;;;;4897008;29;20052;-59
2024/02/16 09:45:59;;;;;;;2.25;1.50;;;16.00;99.90;;;;;;4899940;29;20088;-60
2024/02/16 09:48:27;;;;;;;6.97;2.00;;;16.10;99.90;;;;;;4901404;29;20067;-60
2024/02/16 09:50:56;;;;;;;3.17;1.40;;;16.00;99.90;;;;;;4899801;29;20052;-62
2024/02/16 09:53:26;;;;;;;1.58;1.02;;;16.00;99.90;;;;;;4903106;29;20048;-60
2024/02/16 09:55:53;;;;;;;6.22;1.60;;;16.00;99.90;;;;;;4900780;29;20734;-57
2024/02/16 09:58:21;;;;;;;4.30;1.50;;;16.00;99.90;;;;;;4885795;29;20060;-57
2024/02/16 10:00:55;;;;;;;5.40;2.58;;;16.00;99.90;;;;;;4898436;29;20691;-60
2024/02/16 10:03:35;;;;;;;5.45;1.58;;;16.00;99.90;;;;;;4888985;29;20040;-57
2024/02/16 10:06:07;;;;;;;3.85;1.70;;;16.10;99.90;;;;;;4880914;29;20593;-58
2024/02/16 10:08:48;;;;;;;3.90;1.58;;;16.10;99.90;;;;;;4898406;29;20120;-60
2024/02/16 10:11:15;;;;;;;3.03;1.63;;;16.00;99.90;;;;;;4908366;29;20088;-61
2024/02/16 10:13:42;;;;;;;5.10;1.45;;;16.00;99.90;;;;;;4897835;29;20055;-59
2024/02/16 10:16:11;;;;;;;5.03;1.55;;;16.10;99.90;;;;;;4898180;29;20486;-58
2024/02/16 10:18:39;;;;;;;3.00;1.30;;;16.00;99.90;;;;;;4900247;29;20070;-58
2024/02/16 10:21:06;;;;;;;7.35;2.00;;;15.90;99.90;;;;;;4891373;29;20080;-61
2024/02/16 10:23:32;;;;;;;2.15;1.48;;;15.90;99.90;;;;;;4893303;29;20052;-60
2024/02/16 10:26:02;;;;;;;2.97;1.40;;;15.90;99.90;;;;;;4891464;29;20060;-60
2024/02/16 10:28:31;;;;;;;2.20;1.58;;;15.90;99.90;;;;;;4893969;29;20044;-59
2024/02/16 10:31:01;;;;;;;3.78;1.60;;;15.90;99.90;;;;;;4895526;29;20036;-59
2024/02/16 10:33:29;;;;;;;7.57;1.95;;;15.80;99.90;;;;;;4891468;29;20513;-59
2024/02/16 10:35:57;;;;;;;3.45;1.42;;;15.70;99.90;;;;;;4904422;29;20040;-59
2024/02/16 10:38:26;;;;;;;3.38;1.77;;;15.60;99.90;;;;;;4906003;29;20166;-57
2024/02/16 10:40:56;;;;;;;2.80;1.70;;;15.60;99.90;;;;;;4893810;29;20112;-56
2024/02/16 10:43:23;;;;;;;3.60;1.57;;;15.50;99.90;;;;;;4895929;29;20191;-56
2024/02/16 10:45:52;;;;;;;2.75;1.67;;;15.50;99.90;;;;;;4896899;29;20044;-58
2024/02/16 10:48:20;;;;;;;3.50;1.80;;;15.60;99.90;;;;;;4902458;29;20053;-59
2024/02/16 10:50:50;;;;;;;5.45;2.10;;;15.60;99.90;;;;;;4901428;29;21017;-60
2024/02/16 10:53:28;;;;;;;4.25;1.90;;;15.70;99.90;;;;;;4886773;29;20095;-58
2024/02/16 10:55:59;;;;;;;5.93;2.00;;;15.70;99.90;;;;;;4890703;29;20048;-60
2024/02/16 10:58:27;;;;;;;2.95;1.75;;;15.80;99.90;;;;;;4899061;29;20534;-60
2024/02/16 11:00:55;;;;;;;5.95;1.73;;;15.90;99.90;;;;;;4892744;29;20048;-61
2024/02/16 11:03:27;;;;;;;3.80;2.00;;;15.90;99.90;;;;;;4895232;29;20048;-60
2024/02/16 11:05:55;;;;;;;10.93;2.53;;;16.10;99.90;;;;;;4882474;29;20060;-60
2024/02/16 11:08:27;;;;;;;4.65;2.00;;;16.20;99.90;;;;;;4894754;29;20048;-59
2024/02/16 11:11:03;;;;;;;2.78;2.20;;;16.30;99.90;;;;;;4900567;29;20044;-60
2024/02/16 11:13:36;;;;;;;4.55;2.42;;;16.50;99.90;;;;;;4896347;29;20051;-61
2024/02/16 11:16:09;;;;;;;4.25;2.10;;;16.50;99.90;;;;;;4881848;29;20048;-62
2024/02/16 11:18:44;;;;;;;7.68;2.75;;;16.40;99.90;;;;;;4889233;29;20053;-63
2024/02/16 11:21:14;;;;;;;7.53;2.40;;;16.30;99.90;;;;;;4892881;29;20143;-63
2024/02/16 11:23:41;;;;;;;5.10;2.00;;;16.30;99.90;;;;;;4899948;29;20049;-64
2024/02/16 11:26:12;;;;;;;5.13;1.98;;;16.20;99.90;;;;;;4904146;29;20053;-65
2024/02/16 11:28:41;;;;;;;6.47;2.50;;;16.20;99.90;;;;;;4901270;29;20045;-63
2024/02/16 11:31:08;;;;;;;5.90;2.28;;;16.20;99.90;;;;;;4897113;29;20107;-63
2024/02/16 11:33:35;;;;;;;6.65;2.20;;;16.10;99.90;;;;;;4897948;29;20092;-63
2024/02/16 11:36:05;;;;;;;5.00;1.98;;;15.90;99.90;;;;;;4901048;29;20076;-64
2024/02/16 11:38:33;;;;;;;3.00;1.70;;;15.80;99.90;;;;;;4901794;29;20044;-64
2024/02/16 11:41:05;;;;;;;5.70;1.92;;;15.90;99.90;;;;;;4899333;29;20056;-64
2024/02/16 11:43:34;;;;;;;4.45;2.22;;;15.90;99.90;;;;;;4895528;29;20137;-64
2024/02/16 11:46:13;;;;;;;6.97;1.90;;;15.90;99.90;;;;;;4894825;29;20052;-64
2024/02/16 11:48:39;;;;;;;5.63;1.80;;;15.80;99.90;;;;;;4894691;29;20577;-64
2024/02/16 11:51:07;;;;;;;3.65;1.85;;;15.80;99.90;;;;;;4894738;29;20679;-65
2024/02/16 11:53:34;;;;;;;5.53;1.88;;;15.90;99.90;;;;;;4891346;29;20060;-64
2024/02/16 11:56:01;;;;;;;2.78;1.83;;;16.00;99.90;;;;;;4891967;29;20104;-64
2024/02/16 11:58:29;;;;;;;5.22;2.33;;;16.00;99.90;;;;;;4896413;29;20130;-64
2024/02/16 12:00:59;;;;;;;4.78;2.38;;;16.10;99.90;;;;;;4891265;29;20498;-63
2024/02/16 12:03:29;;;;;;;4.53;2.17;;;16.10;99.90;;;;;;4891657;29;20054;-65
2024/02/16 12:05:59;;;;;;;8.88;2.08;;;16.00;99.90;;;;;;4875734;29;20442;-65
2024/02/16 12:08:33;;;;;;;6.57;2.77;;;15.90;99.90;;;;;;4895662;29;20477;-64
2024/02/16 12:11:02;;;;;;;3.45;1.65;;;15.80;99.90;;;;;;4912869;29;20603;-64
2024/02/16 12:13:28;;;;;;;5.72;1.90;;;15.60;99.90;;;;;;4890840;29;20062;-65
2024/02/16 12:15:56;;;;;;;4.28;2.10;;;15.50;99.90;;;;;;4888279;29;20082;-64
2024/02/16 12:18:24;;;;;;;4.88;2.28;;;15.70;99.90;;;;;;4889488;29;20526;-64
2024/02/16 12:21:03;;;;;;;5.18;2.05;;;15.90;99.90;;;;;;4903756;29;20048;-64
2024/02/16 12:23:32;;;;;;;3.85;1.77;;;16.00;99.90;;;;;;4896225;29;20064;-64
2024/02/16 12:26:00;;;;;;;6.10;1.77;;;16.30;99.90;;;;;;4891477;29;20116;-63
2024/02/16 12:28:34;;;;;;;2.47;1.40;;;16.50;99.90;;;;;;4911373;29;21131;-63
2024/02/16 12:31:02;;;;;;;4.50;1.77;;;16.60;99.90;;;;;;4895880;29;20385;-65
2024/02/16 12:33:30;;;;;;;2.78;1.30;;;16.60;99.90;;;;;;4897511;29;20056;-64
2024/02/16 12:35:57;;;;;;;5.07;1.15;;;16.50;99.90;;;;;;4902808;29;20075;-64
2024/02/16 12:38:24;;;;;;;2.95;1.20;;;16.60;99.90;;;;;;4906927;29;21112;-66
2024/02/16 12:40:51;;;;;;;2.78;1.15;;;16.60;99.90;;;;;;4914246;29;20052;-65
2024/02/16 12:43:19;;;;;;;3.70;1.65;;;16.60;99.90;;;;;;4900928;29;20056;-65
2024/02/16 12:45:46;;;;;;;4.97;1.40;;;16.80;99.90;;;;;;4895863;29;20068;-65
2024/02/16 12:48:14;;;;;;;7.00;1.48;;;16.90;99.90;;;;;;4902965;29;20500;-65
2024/02/16 12:50:41;;;;;;;3.55;0.98;;;16.90;99.90;;;;;;4906563;29;20051;-64
2024/02/16 12:53:09;;;;;;;4.05;1.27;;;16.90;99.90;;;;;;4900039;29;20049;-65